sensor_id;sensor_type;location;lat;lon;timestamp;pressure;altitude;pressure_sealevel;temperature;humidity
51313;BME280;37397;53.226;10.400;2023-05-19T00:01:48;102400.94;;;13.43;44.63
51313;BME280;37397;53.226;10.400;2023-05-19T00:04:15;102400.13;;;13.42;44.61
51313;BME280;37397;53.226;10.400;2023-05-19T00:06:42;102395.69;;;13.41;44.72
51313;BME280;37397;53.226;10.400;2023-05-19T00:09:10;102396.94;;;13.40;44.80
51313;BME280;37397;53.226;10.400;2023-05-19T00:11:38;102407.25;;;13.38;44.84
51313;BME280;37397;53.226;10.400;2023-05-19T00:14:07;102393.03;;;13.34;44.94
51313;BME280;37397;53.226;10.400;2023-05-19T00:16:34;102395.44;;;13.36;44.75
51313;BME280;37397;53.226;10.400;2023-05-19T00:19:04;102393.50;;;13.32;44.90
51313;BME280;37397;53.226;10.400;2023-05-19T00:21:31;102401.28;;;13.32;44.93
51313;BME280;37397;53.226;10.400;2023-05-19T00:23:58;102403.00;;;13.29;44.87
51313;BME280;37397;53.226;10.400;2023-05-19T00:26:26;102402.22;;;13.29;45.14
51313;BME280;37397;53.226;10.400;2023-05-19T00:28:58;102394.19;;;13.24;45.03
51313;BME280;37397;53.226;10.400;2023-05-19T00:31:24;102401.88;;;13.27;44.97
51313;BME280;37397;53.226;10.400;2023-05-19T00:33:51;102398.66;;;13.25;45.07
51313;BME280;37397;53.226;10.400;2023-05-19T00:36:18;102395.44;;;13.23;45.14
51313;BME280;37397;53.226;10.400;2023-05-19T00:38:44;102402.47;;;13.22;45.32
51313;BME280;37397;53.226;10.400;2023-05-19T00:41:11;102397.66;;;13.19;45.23
51313;BME280;37397;53.226;10.400;2023-05-19T00:43:37;102395.56;;;13.19;45.24
51313;BME280;37397;53.226;10.400;2023-05-19T00:46:04;102388.34;;;13.14;45.28
51313;BME280;37397;53.226;10.400;2023-05-19T00:48:30;102389.50;;;13.17;45.37
51313;BME280;37397;53.226;10.400;2023-05-19T00:50:58;102394.44;;;13.17;45.33
51313;BME280;37397;53.226;10.400;2023-05-19T00:53:31;102395.34;;;13.13;45.41
51313;BME280;37397;53.226;10.400;2023-05-19T00:55:59;102399.13;;;13.10;45.52
51313;BME280;37397;53.226;10.400;2023-05-19T00:58:27;102395.00;;;13.11;45.43
51313;BME280;37397;53.226;10.400;2023-05-19T01:00:57;102395.13;;;13.08;45.58
51313;BME280;37397;53.226;10.400;2023-05-19T01:03:33;102400.09;;;13.07;45.60
51313;BME280;37397;53.226;10.400;2023-05-19T01:06:02;102401.31;;;13.06;45.66
51313;BME280;37397;53.226;10.400;2023-05-19T01:08:35;102393.97;;;13.05;45.46
51313;BME280;37397;53.226;10.400;2023-05-19T01:11:06;102388.84;;;13.00;45.54
51313;BME280;37397;53.226;10.400;2023-05-19T01:13:34;102394.56;;;13.00;45.86
51313;BME280;37397;53.226;10.400;2023-05-19T01:16:14;102389.75;;;12.97;45.81
51313;BME280;37397;53.226;10.400;2023-05-19T01:18:59;102390.22;;;12.95;45.89
51313;BME280;37397;53.226;10.400;2023-05-19T01:27:30;102395.03;;;12.86;46.12
51313;BME280;37397;53.226;10.400;2023-05-19T01:30:27;102386.91;;;12.84;46.02
51313;BME280;37397;53.226;10.400;2023-05-19T01:32:58;102397.22;;;12.82;46.24
51313;BME280;37397;53.226;10.400;2023-05-19T01:35:27;102400.44;;;12.84;46.44
51313;BME280;37397;53.226;10.400;2023-05-19T01:37:57;102398.81;;;12.83;46.43
51313;BME280;37397;53.226;10.400;2023-05-19T01:40:25;102393.09;;;12.83;46.44
51313;BME280;37397;53.226;10.400;2023-05-19T01:42:53;102392.41;;;12.79;46.40
51313;BME280;37397;53.226;10.400;2023-05-19T01:45:24;102401.81;;;12.79;46.47
51313;BME280;37397;53.226;10.400;2023-05-19T01:47:57;102390.94;;;12.74;46.38
51313;BME280;37397;53.226;10.400;2023-05-19T01:50:25;102395.75;;;12.77;46.70
51313;BME280;37397;53.226;10.400;2023-05-19T01:52:52;102397.00;;;12.76;46.75
51313;BME280;37397;53.226;10.400;2023-05-19T01:55:19;102390.09;;;12.73;46.78
51313;BME280;37397;53.226;10.400;2023-05-19T01:57:58;102397.44;;;12.74;46.60
51313;BME280;37397;53.226;10.400;2023-05-19T02:06:40;102396.19;;;12.63;46.68
51313;BME280;37397;53.226;10.400;2023-05-19T02:09:15;102398.59;;;12.64;46.92
51313;BME280;37397;53.226;10.400;2023-05-19T02:12:03;102396.78;;;12.57;46.95
51313;BME280;37397;53.226;10.400;2023-05-19T02:14:54;102390.59;;;12.59;46.87
51313;BME280;37397;53.226;10.400;2023-05-19T02:17:26;102394.25;;;12.59;47.20
51313;BME280;37397;53.226;10.400;2023-05-19T02:19:54;102387.03;;;12.55;47.36
51313;BME280;37397;53.226;10.400;2023-05-19T02:22:21;102396.78;;;12.57;47.22
51313;BME280;37397;53.226;10.400;2023-05-19T02:24:47;102392.28;;;12.56;47.32
51313;BME280;37397;53.226;10.400;2023-05-19T02:27:16;102396.53;;;12.52;47.27
51313;BME280;37397;53.226;10.400;2023-05-19T02:29:43;102390.78;;;12.52;47.36
51313;BME280;37397;53.226;10.400;2023-05-19T02:32:10;102385.97;;;12.49;47.42
51313;BME280;37397;53.226;10.400;2023-05-19T02:34:38;102384.41;;;12.48;47.41
51313;BME280;37397;53.226;10.400;2023-05-19T02:37:05;102390.47;;;12.50;47.44
51313;BME280;37397;53.226;10.400;2023-05-19T02:39:33;102394.22;;;12.47;47.61
51313;BME280;37397;53.226;10.400;2023-05-19T02:42:00;102383.56;;;12.47;47.64
51313;BME280;37397;53.226;10.400;2023-05-19T02:44:27;102386.88;;;12.46;47.59
51313;BME280;37397;53.226;10.400;2023-05-19T02:46:53;102386.09;;;12.45;47.78
51313;BME280;37397;53.226;10.400;2023-05-19T02:49:20;102378.75;;;12.44;47.71
51313;BME280;37397;53.226;10.400;2023-05-19T02:51:47;102377.25;;;12.39;47.70
51313;BME280;37397;53.226;10.400;2023-05-19T02:54:13;102376.81;;;12.41;47.91
51313;BME280;37397;53.226;10.400;2023-05-19T02:56:40;102370.84;;;12.35;47.82
51313;BME280;37397;53.226;10.400;2023-05-19T02:59:06;102382.97;;;12.39;47.78
51313;BME280;37397;53.226;10.400;2023-05-19T03:01:33;102374.84;;;12.38;48.00
51313;BME280;37397;53.226;10.400;2023-05-19T03:03:59;102369.25;;;12.34;47.95
51313;BME280;37397;53.226;10.400;2023-05-19T03:06:26;102373.38;;;12.33;47.76
51313;BME280;37397;53.226;10.400;2023-05-19T03:08:53;102364.88;;;12.30;48.19
51313;BME280;37397;53.226;10.400;2023-05-19T03:11:20;102362.00;;;12.30;48.03
51313;BME280;37397;53.226;10.400;2023-05-19T03:13:48;102368.19;;;12.28;48.15
51313;BME280;37397;53.226;10.400;2023-05-19T03:16:15;102371.44;;;12.30;48.24
51313;BME280;37397;53.226;10.400;2023-05-19T03:18:41;102371.44;;;12.30;48.24
51313;BME280;37397;53.226;10.400;2023-05-19T03:21:08;102359.59;;;12.28;48.13
51313;BME280;37397;53.226;10.400;2023-05-19T03:23:35;102366.63;;;12.27;48.18
51313;BME280;37397;53.226;10.400;2023-05-19T03:26:02;102358.59;;;12.22;48.36
51313;BME280;37397;53.226;10.400;2023-05-19T03:28:29;102357.31;;;12.23;48.31
51313;BME280;37397;53.226;10.400;2023-05-19T03:30:56;102360.19;;;12.23;48.50
51313;BME280;37397;53.226;10.400;2023-05-19T03:33:26;102363.94;;;12.20;48.44
51313;BME280;37397;53.226;10.400;2023-05-19T03:35:56;102368.44;;;12.21;48.39
51313;BME280;37397;53.226;10.400;2023-05-19T03:38:22;102372.53;;;12.20;48.42
51313;BME280;37397;53.226;10.400;2023-05-19T03:40:54;102369.66;;;12.20;48.47
51313;BME280;37397;53.226;10.400;2023-05-19T03:43:21;102376.31;;;12.17;48.51
51313;BME280;37397;53.226;10.400;2023-05-19T03:45:53;102365.75;;;12.14;48.60
51313;BME280;37397;53.226;10.400;2023-05-19T03:48:43;102375.63;;;12.13;48.56
51313;BME280;37397;53.226;10.400;2023-05-19T03:51:28;102369.91;;;12.13;48.60
51313;BME280;37397;53.226;10.400;2023-05-19T03:54:04;102378.94;;;12.11;48.77
51313;BME280;37397;53.226;10.400;2023-05-19T03:56:31;102371.25;;;12.08;48.63
51313;BME280;37397;53.226;10.400;2023-05-19T03:58:58;102370.47;;;12.08;48.77
51313;BME280;37397;53.226;10.400;2023-05-19T04:01:24;102363.47;;;12.09;48.86
51313;BME280;37397;53.226;10.400;2023-05-19T04:03:51;102377.44;;;12.07;48.94
51313;BME280;37397;53.226;10.400;2023-05-19T04:06:17;102374.56;;;12.07;48.99
51313;BME280;37397;53.226;10.400;2023-05-19T04:08:44;102377.44;;;12.07;48.99
51313;BME280;37397;53.226;10.400;2023-05-19T04:11:11;102375.81;;;12.06;49.00
51313;BME280;37397;53.226;10.400;2023-05-19T04:13:38;102370.22;;;12.02;48.94
51313;BME280;37397;53.226;10.400;2023-05-19T04:16:04;102361.41;;;11.96;49.27
51313;BME280;37397;53.226;10.400;2023-05-19T04:18:31;102384.06;;;12.03;49.18
51313;BME280;37397;53.226;10.400;2023-05-19T04:20:58;102376.38;;;12.00;49.30
51313;BME280;37397;53.226;10.400;2023-05-19T04:23:25;102382.44;;;12.02;49.41
51313;BME280;37397;53.226;10.400;2023-05-19T04:25:51;102379.25;;;12.00;49.38
51313;BME280;37397;53.226;10.400;2023-05-19T04:28:19;102386.13;;;12.03;49.33
51313;BME280;37397;53.226;10.400;2023-05-19T04:30:46;102389.78;;;12.03;49.49
51313;BME280;37397;53.226;10.400;2023-05-19T04:33:13;102378.91;;;11.98;49.47
51313;BME280;37397;53.226;10.400;2023-05-19T04:35:40;102385.69;;;12.04;49.44
51313;BME280;37397;53.226;10.400;2023-05-19T04:38:10;102387.28;;;12.06;49.45
51313;BME280;37397;53.226;10.400;2023-05-19T04:40:37;102384.06;;;12.03;49.65
51313;BME280;37397;53.226;10.400;2023-05-19T04:43:06;102392.53;;;12.07;49.40
51313;BME280;37397;53.226;10.400;2023-05-19T04:45:34;102392.19;;;12.05;49.55
51313;BME280;37397;53.226;10.400;2023-05-19T04:48:03;102401.94;;;12.08;49.50
51313;BME280;37397;53.226;10.400;2023-05-19T04:50:30;102392.19;;;12.05;49.55
51313;BME280;37397;53.226;10.400;2023-05-19T04:52:58;102393.69;;;12.10;49.59
51313;BME280;37397;53.226;10.400;2023-05-19T04:55:25;102388.88;;;12.07;49.71
51313;BME280;37397;53.226;10.400;2023-05-19T04:57:52;102389.09;;;12.12;49.67
51313;BME280;37397;53.226;10.400;2023-05-19T05:00:20;102394.38;;;12.14;49.96
51313;BME280;37397;53.226;10.400;2023-05-19T05:02:55;102391.53;;;12.14;50.00
51313;BME280;37397;53.226;10.400;2023-05-19T05:05:24;102386.16;;;12.16;50.03
51313;BME280;37397;53.226;10.400;2023-05-19T05:07:51;102393.47;;;12.17;50.34
51313;BME280;37397;53.226;10.400;2023-05-19T05:10:21;102377.91;;;12.18;50.28
51313;BME280;37397;53.226;10.400;2023-05-19T05:12:48;102388.56;;;12.17;50.24
51313;BME280;37397;53.226;10.400;2023-05-19T05:15:15;102382.75;;;12.21;50.27
51313;BME280;37397;53.226;10.400;2023-05-19T05:17:43;102387.22;;;12.22;50.31
51313;BME280;37397;53.226;10.400;2023-05-19T05:20:11;102386.28;;;12.25;50.30
51313;BME280;37397;53.226;10.400;2023-05-19T05:22:38;102385.75;;;12.30;50.52
51313;BME280;37397;53.226;10.400;2023-05-19T05:25:06;102384.13;;;12.29;50.29
51313;BME280;37397;53.226;10.400;2023-05-19T05:27:33;102391.34;;;12.34;50.43
51313;BME280;37397;53.226;10.400;2023-05-19T05:30:03;102392.84;;;12.38;50.33
51313;BME280;37397;53.226;10.400;2023-05-19T05:32:30;102386.31;;;12.38;50.26
51313;BME280;37397;53.226;10.400;2023-05-19T05:34:59;102396.06;;;12.40;50.30
51313;BME280;37397;53.226;10.400;2023-05-19T05:37:25;102389.41;;;12.44;50.48
51313;BME280;37397;53.226;10.400;2023-05-19T05:39:52;102392.72;;;12.42;50.22
51313;BME280;37397;53.226;10.400;2023-05-19T05:42:18;102388.50;;;12.47;50.51
51313;BME280;37397;53.226;10.400;2023-05-19T05:44:46;102391.25;;;12.50;50.50
51313;BME280;37397;53.226;10.400;2023-05-19T05:47:13;102394.00;;;12.54;50.33
51313;BME280;37397;53.226;10.400;2023-05-19T05:49:40;102397.22;;;12.56;50.47
51313;BME280;37397;53.226;10.400;2023-05-19T05:52:10;102400.44;;;12.58;50.35
51313;BME280;37397;53.226;10.400;2023-05-19T05:54:43;102386.56;;;12.56;50.26
51313;BME280;37397;53.226;10.400;2023-05-19T05:57:11;102393.00;;;12.61;50.34
51313;BME280;37397;53.226;10.400;2023-05-19T05:59:39;102395.28;;;12.66;50.24
51313;BME280;37397;53.226;10.400;2023-05-19T06:02:06;102386.22;;;12.67;50.06
51313;BME280;37397;53.226;10.400;2023-05-19T06:04:34;102386.91;;;12.71;50.54
51313;BME280;37397;53.226;10.400;2023-05-19T06:07:02;102388.41;;;12.76;50.46
51313;BME280;37397;53.226;10.400;2023-05-19T06:09:33;102390.47;;;12.75;50.55
51313;BME280;37397;53.226;10.400;2023-05-19T06:12:01;102391.13;;;12.80;50.49
51313;BME280;37397;53.226;10.400;2023-05-19T06:14:32;102392.16;;;12.86;50.65
51313;BME280;37397;53.226;10.400;2023-05-19T06:17:34;102396.66;;;12.87;50.41
51313;BME280;37397;53.226;10.400;2023-05-19T06:20:02;102393.53;;;12.94;50.27
51313;BME280;37397;53.226;10.400;2023-05-19T06:22:30;102383.69;;;12.95;50.52
51313;BME280;37397;53.226;10.400;2023-05-19T06:24:57;102377.63;;;12.93;50.62
51313;BME280;37397;53.226;10.400;2023-05-19T06:27:23;102388.25;;;13.05;50.65
51313;BME280;37397;53.226;10.400;2023-05-19T06:29:50;102384.94;;;13.07;50.79
51313;BME280;37397;53.226;10.400;2023-05-19T06:32:16;102386.75;;;13.13;51.04
51313;BME280;37397;53.226;10.400;2023-05-19T06:34:44;102385.50;;;13.14;50.80
51313;BME280;37397;53.226;10.400;2023-05-19T06:37:10;102390.19;;;13.21;50.95
51313;BME280;37397;53.226;10.400;2023-05-19T06:39:40;102385.25;;;13.22;50.97
51313;BME280;37397;53.226;10.400;2023-05-19T06:42:07;102392.34;;;13.30;50.93
51313;BME280;37397;53.226;10.400;2023-05-19T06:45:06;102387.31;;;13.34;50.82
51313;BME280;37397;53.226;10.400;2023-05-19T06:47:33;102390.03;;;13.38;50.76
51313;BME280;37397;53.226;10.400;2023-05-19T06:49:59;102383.75;;;13.43;50.65
51313;BME280;37397;53.226;10.400;2023-05-19T06:52:31;102388.44;;;13.49;50.64
51313;BME280;37397;53.226;10.400;2023-05-19T06:54:59;102386.69;;;13.52;50.59
51313;BME280;37397;53.226;10.400;2023-05-19T06:57:26;102384.81;;;13.58;50.41
51313;BME280;37397;53.226;10.400;2023-05-19T06:59:52;102376.44;;;13.64;50.46
51313;BME280;37397;53.226;10.400;2023-05-19T07:02:19;102378.38;;;13.67;50.47
51313;BME280;37397;53.226;10.400;2023-05-19T07:04:46;102378.09;;;13.74;50.30
51313;BME280;37397;53.226;10.400;2023-05-19T07:07:14;102381.31;;;13.76;50.35
51313;BME280;37397;53.226;10.400;2023-05-19T07:09:42;102383.13;;;13.83;50.15
51313;BME280;37397;53.226;10.400;2023-05-19T07:12:08;102377.25;;;13.86;49.94
51313;BME280;37397;53.226;10.400;2023-05-19T07:14:35;102380.31;;;13.92;49.78
51313;BME280;37397;53.226;10.400;2023-05-19T07:17:04;102380.84;;;14.00;49.80
51313;BME280;37397;53.226;10.400;2023-05-19T07:19:32;102373.84;;;14.01;49.73
51313;BME280;37397;53.226;10.400;2023-05-19T07:21:58;102388.72;;;14.09;49.45
51313;BME280;37397;53.226;10.400;2023-05-19T07:24:25;102389.06;;;14.11;49.21
51313;BME280;37397;53.226;10.400;2023-05-19T07:26:52;102392.13;;;14.16;49.15
51313;BME280;37397;53.226;10.400;2023-05-19T07:29:19;102394.06;;;14.19;49.23
51313;BME280;37397;53.226;10.400;2023-05-19T07:31:45;102385.66;;;14.25;49.10
51313;BME280;37397;53.226;10.400;2023-05-19T07:34:12;102390.00;;;14.30;49.04
51313;BME280;37397;53.226;10.400;2023-05-19T07:36:39;102378.81;;;14.32;49.15
51313;BME280;37397;53.226;10.400;2023-05-19T07:39:05;102377.88;;;14.35;49.01
51313;BME280;37397;53.226;10.400;2023-05-19T07:41:32;102387.50;;;14.41;48.93
51313;BME280;37397;53.226;10.400;2023-05-19T07:44:01;102373.13;;;14.41;48.94
51313;BME280;37397;53.226;10.400;2023-05-19T07:46:33;102378.25;;;14.46;48.82
51313;BME280;37397;53.226;10.400;2023-05-19T07:49:01;102385.13;;;14.49;48.91
51313;BME280;37397;53.226;10.400;2023-05-19T07:51:27;102377.31;;;14.49;48.58
51313;BME280;37397;53.226;10.400;2023-05-19T07:53:54;102379.25;;;14.52;48.66
51313;BME280;37397;53.226;10.400;2023-05-19T07:56:20;102378.63;;;14.57;48.56
51313;BME280;37397;53.226;10.400;2023-05-19T07:58:47;102378.16;;;14.59;48.53
51313;BME280;37397;53.226;10.400;2023-05-19T08:01:13;102377.72;;;14.61;48.47
51313;BME280;37397;53.226;10.400;2023-05-19T08:03:40;102382.84;;;14.66;48.18
51313;BME280;37397;53.226;10.400;2023-05-19T08:06:07;102382.06;;;14.65;48.65
51313;BME280;37397;53.226;10.400;2023-05-19T08:08:33;102376.16;;;14.69;48.33
51313;BME280;37397;53.226;10.400;2023-05-19T08:11:01;102378.09;;;14.72;48.21
51313;BME280;37397;53.226;10.400;2023-05-19T08:13:29;102361.63;;;14.72;48.11
51313;BME280;37397;53.226;10.400;2023-05-19T08:15:56;102366.91;;;14.74;48.51
51313;BME280;37397;53.226;10.400;2023-05-19T08:18:25;102370.78;;;14.80;48.30
51313;BME280;37397;53.226;10.400;2023-05-19T08:20:52;102366.97;;;14.83;48.49
51313;BME280;37397;53.226;10.400;2023-05-19T08:23:18;102370.94;;;14.86;48.46
51313;BME280;37397;53.226;10.400;2023-05-19T08:25:45;102365.06;;;14.89;48.43
51313;BME280;37397;53.226;10.400;2023-05-19T08:28:11;102364.59;;;14.91;48.27
51313;BME280;37397;53.226;10.400;2023-05-19T08:30:38;102363.13;;;14.95;48.37
51313;BME280;37397;53.226;10.400;2023-05-19T08:33:05;102368.75;;;14.99;48.46
51313;BME280;37397;53.226;10.400;2023-05-19T08:35:31;102365.72;;;15.03;48.54
51313;BME280;37397;53.226;10.400;2023-05-19T08:37:58;102366.53;;;15.03;48.34
51313;BME280;37397;53.226;10.400;2023-05-19T08:40:26;102363.50;;;15.07;48.57
51313;BME280;37397;53.226;10.400;2023-05-19T08:42:54;102368.94;;;15.14;48.39
51313;BME280;37397;53.226;10.400;2023-05-19T08:45:20;102358.06;;;15.18;48.31
51313;BME280;37397;53.226;10.400;2023-05-19T08:47:47;102353.16;;;15.19;48.14
51313;BME280;37397;53.226;10.400;2023-05-19T08:50:23;102358.75;;;15.22;48.23
51313;BME280;37397;53.226;10.400;2023-05-19T08:55:32;102345.31;;;15.28;48.21
51313;BME280;37397;53.226;10.400;2023-05-19T08:58:02;102341.81;;;15.34;48.14
51313;BME280;37397;53.226;10.400;2023-05-19T09:00:29;102342.59;;;15.34;47.98
51313;BME280;37397;53.226;10.400;2023-05-19T09:02:56;102345.34;;;15.38;47.98
51313;BME280;37397;53.226;10.400;2023-05-19T09:05:43;102345.97;;;15.42;47.85
51313;BME280;37397;53.226;10.400;2023-05-19T09:08:11;102346.28;;;15.44;47.88
51313;BME280;37397;53.226;10.400;2023-05-19T09:10:37;102325.34;;;15.43;47.65
51313;BME280;37397;53.226;10.400;2023-05-19T09:13:04;102329.66;;;15.48;47.97
51313;BME280;37397;53.226;10.400;2023-05-19T09:15:31;102331.28;;;15.49;47.68
51313;BME280;37397;53.226;10.400;2023-05-19T09:18:06;102332.22;;;15.55;47.68
51313;BME280;37397;53.226;10.400;2023-05-19T09:20:43;102326.78;;;15.57;47.72
51313;BME280;37397;53.226;10.400;2023-05-19T09:23:14;102327.41;;;15.61;47.83
51313;BME280;37397;53.226;10.400;2023-05-19T09:25:49;102332.22;;;15.64;47.71
51313;BME280;37397;53.226;10.400;2023-05-19T09:28:26;102324.72;;;15.67;47.70
51313;BME280;37397;53.226;10.400;2023-05-19T09:31:00;102322.94;;;15.69;47.46
51313;BME280;37397;53.226;10.400;2023-05-19T09:33:28;102326.78;;;15.76;47.44
51313;BME280;37397;53.226;10.400;2023-05-19T09:35:55;102327.44;;;15.80;47.25
51313;BME280;37397;53.226;10.400;2023-05-19T09:38:25;102319.13;;;15.82;47.18
51313;BME280;37397;53.226;10.400;2023-05-19T09:40:55;102322.66;;;15.86;47.19
51313;BME280;37397;53.226;10.400;2023-05-19T09:43:23;102303.28;;;15.86;47.26
51313;BME280;37397;53.226;10.400;2023-05-19T09:45:59;102315.94;;;15.89;47.31
51313;BME280;37397;53.226;10.400;2023-05-19T09:48:29;102314.44;;;15.94;47.13
51313;BME280;37397;53.226;10.400;2023-05-19T09:50:56;102309.50;;;15.94;47.57
51313;BME280;37397;53.226;10.400;2023-05-19T09:53:23;102302.78;;;15.97;47.12
51313;BME280;37397;53.226;10.400;2023-05-19T09:55:54;102306.75;;;16.00;47.34
51313;BME280;37397;53.226;10.400;2023-05-19T09:58:25;102305.31;;;16.04;47.05
51313;BME280;37397;53.226;10.400;2023-05-19T10:00:52;102313.78;;;16.08;47.09
51313;BME280;37397;53.226;10.400;2023-05-19T10:03:21;102305.00;;;16.12;47.05
51313;BME280;37397;53.226;10.400;2023-05-19T10:05:49;102308.16;;;16.14;46.83
51313;BME280;37397;53.226;10.400;2023-05-19T10:08:16;102287.72;;;16.12;46.55
51313;BME280;37397;53.226;10.400;2023-05-19T10:10:46;102293.75;;;16.23;46.55
51313;BME280;37397;53.226;10.400;2023-05-19T10:13:13;102283.66;;;16.28;46.41
51313;BME280;37397;53.226;10.400;2023-05-19T10:15:41;102285.03;;;16.32;46.41
51313;BME280;37397;53.226;10.400;2023-05-19T10:18:25;102282.16;;;16.32;46.54
51313;BME280;37397;53.226;10.400;2023-05-19T10:20:52;102281.03;;;16.39;46.32
51313;BME280;37397;53.226;10.400;2023-05-19T10:23:19;102272.69;;;16.41;46.23
51313;BME280;37397;53.226;10.400;2023-05-19T10:25:46;102267.91;;;16.38;46.41
51313;BME280;37397;53.226;10.400;2023-05-19T10:28:16;102281.78;;;16.49;46.30
51313;BME280;37397;53.226;10.400;2023-05-19T10:30:46;102276.03;;;16.49;46.05
51313;BME280;37397;53.226;10.400;2023-05-19T10:33:16;102267.38;;;16.49;46.11
51313;BME280;37397;53.226;10.400;2023-05-19T10:39:03;102272.16;;;16.52;45.60
51313;BME280;37397;53.226;10.400;2023-05-19T10:44:16;102270.19;;;16.58;45.55
51313;BME280;37397;53.226;10.400;2023-05-19T10:46:46;102270.53;;;16.60;45.67
51313;BME280;37397;53.226;10.400;2023-05-19T10:49:22;102261.88;;;16.60;45.72
51313;BME280;37397;53.226;10.400;2023-05-19T10:51:51;102261.19;;;16.65;45.51
51313;BME280;37397;53.226;10.400;2023-05-19T10:54:37;102259.91;;;16.66;45.22
51313;BME280;37397;53.226;10.400;2023-05-19T10:57:06;102263.91;;;16.69;45.44
51313;BME280;37397;53.226;10.400;2023-05-19T10:59:35;102265.59;;;16.75;45.11
51313;BME280;37397;53.226;10.400;2023-05-19T11:02:06;102264.34;;;16.76;45.26
51313;BME280;37397;53.226;10.400;2023-05-19T11:04:47;102254.38;;;16.77;45.06
51313;BME280;37397;53.226;10.400;2023-05-19T11:07:18;102253.41;;;16.81;45.52
51313;BME280;37397;53.226;10.400;2023-05-19T11:09:50;102251.63;;;16.83;45.38
51313;BME280;37397;53.226;10.400;2023-05-19T11:12:21;102250.19;;;16.88;45.30
51313;BME280;37397;53.226;10.400;2023-05-19T11:14:53;102254.97;;;16.91;45.31
51313;BME280;37397;53.226;10.400;2023-05-19T11:17:20;102254.00;;;16.94;45.44
51313;BME280;37397;53.226;10.400;2023-05-19T11:19:53;102245.34;;;16.94;45.21
51313;BME280;37397;53.226;10.400;2023-05-19T11:22:27;102254.28;;;16.96;45.17
51313;BME280;37397;53.226;10.400;2023-05-19T11:24:54;102252.34;;;17.02;45.06
51313;BME280;37397;53.226;10.400;2023-05-19T11:27:28;102252.03;;;17.00;45.26
51313;BME280;37397;53.226;10.400;2023-05-19T11:30:09;102257.13;;;17.05;45.34
51313;BME280;37397;53.226;10.400;2023-05-19T11:32:40;102251.16;;;17.09;45.19
51313;BME280;37397;53.226;10.400;2023-05-19T11:35:08;102252.25;;;17.11;45.37
51313;BME280;37397;53.226;10.400;2023-05-19T11:37:35;102264.88;;;17.14;45.23
51313;BME280;37397;53.226;10.400;2023-05-19T11:40:04;102254.13;;;17.14;45.00
51313;BME280;37397;53.226;10.400;2023-05-19T11:42:34;102247.38;;;17.18;44.76
51313;BME280;37397;53.226;10.400;2023-05-19T11:45:03;102243.50;;;17.21;44.67
51313;BME280;37397;53.226;10.400;2023-05-19T11:47:30;102237.56;;;17.24;44.64
51313;BME280;37397;53.226;10.400;2023-05-19T11:50:17;102232.78;;;17.21;45.04
51313;BME280;37397;53.226;10.400;2023-05-19T11:52:44;102233.66;;;17.27;44.74
51313;BME280;37397;53.226;10.400;2023-05-19T11:55:18;102234.78;;;17.30;44.07
51313;BME280;37397;53.226;10.400;2023-05-19T11:58:01;102235.56;;;17.30;44.47
51313;BME280;37397;53.226;10.400;2023-05-19T12:00:34;102239.56;;;17.33;44.39
51313;BME280;37397;53.226;10.400;2023-05-19T12:03:05;102234.09;;;17.35;44.57
51313;BME280;37397;53.226;10.400;2023-05-19T12:05:35;102235.50;;;17.40;44.59
51313;BME280;37397;53.226;10.400;2023-05-19T12:08:07;102220.56;;;17.41;44.47
51313;BME280;37397;53.226;10.400;2023-05-19T12:10:34;102231.13;;;17.44;44.48
51313;BME280;37397;53.226;10.400;2023-05-19T12:13:01;102220.69;;;17.47;44.25
51313;BME280;37397;53.226;10.400;2023-05-19T12:15:30;102222.75;;;17.46;44.29
51313;BME280;37397;53.226;10.400;2023-05-19T12:18:00;102218.59;;;17.47;44.42
51313;BME280;37397;53.226;10.400;2023-05-19T12:20:28;102217.88;;;17.53;44.23
51313;BME280;37397;53.226;10.400;2023-05-19T12:22:58;102212.41;;;17.55;44.29
51313;BME280;37397;53.226;10.400;2023-05-19T12:25:27;102221.66;;;17.59;44.84
51313;BME280;37397;53.226;10.400;2023-05-19T12:27:58;102219.06;;;17.61;44.65
51313;BME280;37397;53.226;10.400;2023-05-19T12:30:26;102207.03;;;17.62;44.61
51313;BME280;37397;53.226;10.400;2023-05-19T12:32:54;102210.22;;;17.64;44.90
51313;BME280;37397;53.226;10.400;2023-05-19T12:35:27;102207.31;;;17.64;44.86
51313;BME280;37397;53.226;10.400;2023-05-19T12:37:54;102211.59;;;17.69;44.52
51313;BME280;37397;53.226;10.400;2023-05-19T12:40:21;102215.38;;;17.75;44.53
51313;BME280;37397;53.226;10.400;2023-05-19T12:42:48;102217.78;;;17.77;44.61
51313;BME280;37397;53.226;10.400;2023-05-19T12:45:19;102208.41;;;17.82;43.93
51313;BME280;37397;53.226;10.400;2023-05-19T12:47:47;102191.91;;;17.82;44.20
51313;BME280;37397;53.226;10.400;2023-05-19T12:50:14;102194.09;;;17.88;44.21
51313;BME280;37397;53.226;10.400;2023-05-19T12:52:46;102191.50;;;17.90;44.21
51313;BME280;37397;53.226;10.400;2023-05-19T12:55:14;102205.44;;;17.91;44.07
51313;BME280;37397;53.226;10.400;2023-05-19T12:57:43;102196.28;;;17.93;43.81
51313;BME280;37397;53.226;10.400;2023-05-19T13:00:14;102209.53;;;17.99;43.98
51313;BME280;37397;53.226;10.400;2023-05-19T13:03:02;102220.28;;;17.99;44.25
51313;BME280;37397;53.226;10.400;2023-05-19T13:05:32;102215.91;;;18.03;43.99
51313;BME280;37397;53.226;10.400;2023-05-19T13:08:07;102212.19;;;18.03;43.85
51313;BME280;37397;53.226;10.400;2023-05-19T13:10:36;102207.72;;;18.02;43.94
51313;BME280;37397;53.226;10.400;2023-05-19T13:13:03;102212.19;;;18.03;44.02